sensor_id;sensor_type;location;lat;lon;timestamp;P1;durP1;ratioP1;P2;durP2;ratioP2
52686;SDS011;38584;49.426;8.396;2023-08-21T00:00:01;15.30;;;6.27;;
52686;SDS011;38584;49.426;8.396;2023-08-21T00:02:26;15.73;;;6.03;;
52686;SDS011;38584;49.426;8.396;2023-08-21T00:04:53;17.15;;;6.07;;
52686;SDS011;38584;49.426;8.396;2023-08-21T00:07:21;13.18;;;5.47;;
52686;SDS011;38584;49.426;8.396;2023-08-21T00:09:49;15.07;;;6.20;;
52686;SDS011;38584;49.426;8.396;2023-08-21T00:12:15;14.15;;;5.70;;
52686;SDS011;38584;49.426;8.396;2023-08-21T00:14:40;13.98;;;5.75;;
52686;SDS011;38584;49.426;8.396;2023-08-21T00:17:05;15.47;;;5.87;;
52686;SDS011;38584;49.426;8.396;2023-08-21T00:19:31;12.77;;;5.95;;
52686;SDS011;38584;49.426;8.396;2023-08-21T00:21:56;16.27;;;5.78;;
52686;SDS011;38584;49.426;8.396;2023-08-21T00:24:22;11.47;;;5.77;;
52686;SDS011;38584;49.426;8.396;2023-08-21T00:26:50;13.15;;;5.90;;
52686;SDS011;38584;49.426;8.396;2023-08-21T00:29:18;19.10;;;5.60;;
52686;SDS011;38584;49.426;8.396;2023-08-21T00:31:43;13.73;;;5.88;;
52686;SDS011;38584;49.426;8.396;2023-08-21T00:34:11;18.95;;;6.00;;
52686;SDS011;38584;49.426;8.396;2023-08-21T00:36:36;13.27;;;6.15;;
52686;SDS011;38584;49.426;8.396;2023-08-21T00:39:01;16.07;;;6.17;;
52686;SDS011;38584;49.426;8.396;2023-08-21T00:41:27;13.20;;;5.43;;
52686;SDS011;38584;49.426;8.396;2023-08-21T00:43:55;16.60;;;6.10;;
52686;SDS011;38584;49.426;8.396;2023-08-21T00:46:26;13.40;;;6.10;;
52686;SDS011;38584;49.426;8.396;2023-08-21T00:48:51;17.05;;;6.20;;
52686;SDS011;38584;49.426;8.396;2023-08-21T00:51:20;13.30;;;5.68;;
52686;SDS011;38584;49.426;8.396;2023-08-21T00:53:51;15.35;;;6.10;;
52686;SDS011;38584;49.426;8.396;2023-08-21T00:56:16;16.27;;;6.47;;
52686;SDS011;38584;49.426;8.396;2023-08-21T00:58:44;21.30;;;6.27;;
52686;SDS011;38584;49.426;8.396;2023-08-21T01:01:09;14.75;;;6.32;;
52686;SDS011;38584;49.426;8.396;2023-08-21T01:03:34;17.03;;;6.10;;
52686;SDS011;38584;49.426;8.396;2023-08-21T01:06:00;12.57;;;6.25;;
52686;SDS011;38584;49.426;8.396;2023-08-21T01:08:30;14.00;;;6.20;;
52686;SDS011;38584;49.426;8.396;2023-08-21T01:11:14;18.20;;;6.53;;
52686;SDS011;38584;49.426;8.396;2023-08-21T01:16:27;13.15;;;6.03;;
52686;SDS011;38584;49.426;8.396;2023-08-21T01:18:53;15.68;;;6.43;;
52686;SDS011;38584;49.426;8.396;2023-08-21T01:21:19;13.45;;;6.10;;
52686;SDS011;38584;49.426;8.396;2023-08-21T01:23:44;17.80;;;6.80;;
52686;SDS011;38584;49.426;8.396;2023-08-21T01:26:15;16.42;;;7.20;;
52686;SDS011;38584;49.426;8.396;2023-08-21T01:28:41;15.23;;;7.10;;
52686;SDS011;38584;49.426;8.396;2023-08-21T01:31:16;15.60;;;6.50;;
52686;SDS011;38584;49.426;8.396;2023-08-21T01:33:57;15.68;;;5.90;;
52686;SDS011;38584;49.426;8.396;2023-08-21T01:36:24;17.17;;;7.00;;
52686;SDS011;38584;49.426;8.396;2023-08-21T01:38:52;18.02;;;6.85;;
52686;SDS011;38584;49.426;8.396;2023-08-21T01:41:17;13.95;;;6.72;;
52686;SDS011;38584;49.426;8.396;2023-08-21T01:43:42;14.80;;;7.13;;
52686;SDS011;38584;49.426;8.396;2023-08-21T01:46:08;15.80;;;6.85;;
52686;SDS011;38584;49.426;8.396;2023-08-21T01:48:33;17.08;;;7.20;;
52686;SDS011;38584;49.426;8.396;2023-08-21T01:51:00;12.40;;;6.67;;
52686;SDS011;38584;49.426;8.396;2023-08-21T01:53:25;14.70;;;7.05;;
52686;SDS011;38584;49.426;8.396;2023-08-21T01:55:53;14.17;;;7.03;;
52686;SDS011;38584;49.426;8.396;2023-08-21T01:58:18;15.13;;;7.13;;
52686;SDS011;38584;49.426;8.396;2023-08-21T02:00:47;14.50;;;6.43;;
52686;SDS011;38584;49.426;8.396;2023-08-21T02:03:12;17.05;;;7.05;;
52686;SDS011;38584;49.426;8.396;2023-08-21T02:05:38;13.15;;;6.85;;
52686;SDS011;38584;49.426;8.396;2023-08-21T02:08:04;15.88;;;7.63;;
52686;SDS011;38584;49.426;8.396;2023-08-21T02:10:35;18.85;;;7.30;;
52686;SDS011;38584;49.426;8.396;2023-08-21T02:13:03;14.80;;;6.85;;
52686;SDS011;38584;49.426;8.396;2023-08-21T02:15:28;13.20;;;6.70;;
52686;SDS011;38584;49.426;8.396;2023-08-21T02:17:54;20.40;;;7.93;;
52686;SDS011;38584;49.426;8.396;2023-08-21T02:20:19;16.27;;;7.10;;
52686;SDS011;38584;49.426;8.396;2023-08-21T02:22:45;12.85;;;6.95;;
52686;SDS011;38584;49.426;8.396;2023-08-21T02:25:10;16.03;;;7.80;;
52686;SDS011;38584;49.426;8.396;2023-08-21T02:27:38;17.70;;;7.47;;
52686;SDS011;38584;49.426;8.396;2023-08-21T02:30:03;15.68;;;7.20;;
52686;SDS011;38584;49.426;8.396;2023-08-21T02:32:29;18.13;;;7.30;;
52686;SDS011;38584;49.426;8.396;2023-08-21T02:34:54;16.90;;;7.73;;
52686;SDS011;38584;49.426;8.396;2023-08-21T02:37:22;16.17;;;7.73;;
52686;SDS011;38584;49.426;8.396;2023-08-21T02:39:53;16.80;;;7.60;;
52686;SDS011;38584;49.426;8.396;2023-08-21T02:42:18;18.88;;;7.55;;
52686;SDS011;38584;49.426;8.396;2023-08-21T02:44:46;17.40;;;7.93;;
52686;SDS011;38584;49.426;8.396;2023-08-21T02:47:11;14.80;;;7.63;;
52686;SDS011;38584;49.426;8.396;2023-08-21T02:49:40;15.93;;;8.50;;
52686;SDS011;38584;49.426;8.396;2023-08-21T02:52:05;16.60;;;8.30;;
52686;SDS011;38584;49.426;8.396;2023-08-21T02:54:33;16.25;;;8.10;;
52686;SDS011;38584;49.426;8.396;2023-08-21T02:56:58;18.00;;;7.63;;
52686;SDS011;38584;49.426;8.396;2023-08-21T02:59:23;20.47;;;8.27;;
52686;SDS011;38584;49.426;8.396;2023-08-21T03:01:51;15.43;;;8.17;;
52686;SDS011;38584;49.426;8.396;2023-08-21T03:04:20;17.98;;;8.68;;
52686;SDS011;38584;49.426;8.396;2023-08-21T03:06:48;15.48;;;8.70;;
52686;SDS011;38584;49.426;8.396;2023-08-21T03:09:13;17.42;;;8.77;;
52686;SDS011;38584;49.426;8.396;2023-08-21T03:11:38;14.67;;;8.03;;
52686;SDS011;38584;49.426;8.396;2023-08-21T03:14:03;14.60;;;8.03;;
52686;SDS011;38584;49.426;8.396;2023-08-21T03:16:28;16.57;;;8.03;;
52686;SDS011;38584;49.426;8.396;2023-08-21T03:18:57;14.67;;;8.27;;
52686;SDS011;38584;49.426;8.396;2023-08-21T03:21:23;16.80;;;8.68;;
52686;SDS011;38584;49.426;8.396;2023-08-21T03:23:53;17.52;;;8.77;;
52686;SDS011;38584;49.426;8.396;2023-08-21T03:26:19;13.77;;;8.27;;
52686;SDS011;38584;49.426;8.396;2023-08-21T03:28:44;14.52;;;8.77;;
52686;SDS011;38584;49.426;8.396;2023-08-21T03:31:10;17.47;;;9.57;;
52686;SDS011;38584;49.426;8.396;2023-08-21T03:33:35;18.10;;;9.60;;
52686;SDS011;38584;49.426;8.396;2023-08-21T03:36:00;21.90;;;9.80;;
52686;SDS011;38584;49.426;8.396;2023-08-21T03:38:25;16.17;;;9.40;;
52686;SDS011;38584;49.426;8.396;2023-08-21T03:40:50;16.30;;;9.43;;
52686;SDS011;38584;49.426;8.396;2023-08-21T03:43:15;17.97;;;9.57;;
52686;SDS011;38584;49.426;8.396;2023-08-21T03:45:43;17.77;;;9.80;;
52686;SDS011;38584;49.426;8.396;2023-08-21T03:48:11;25.83;;;10.00;;
52686;SDS011;38584;49.426;8.396;2023-08-21T03:50:41;20.77;;;9.35;;
52686;SDS011;38584;49.426;8.396;2023-08-21T03:53:16;16.35;;;9.45;;
52686;SDS011;38584;49.426;8.396;2023-08-21T03:55:41;17.75;;;9.68;;
52686;SDS011;38584;49.426;8.396;2023-08-21T03:58:13;21.47;;;9.83;;
52686;SDS011;38584;49.426;8.396;2023-08-21T04:00:41;16.65;;;10.20;;
52686;SDS011;38584;49.426;8.396;2023-08-21T04:03:06;21.13;;;10.40;;
52686;SDS011;38584;49.426;8.396;2023-08-21T04:05:40;16.37;;;9.37;;
52686;SDS011;38584;49.426;8.396;2023-08-21T04:08:11;18.83;;;10.07;;
52686;SDS011;38584;49.426;8.396;2023-08-21T04:10:36;18.63;;;9.85;;
52686;SDS011;38584;49.426;8.396;2023-08-21T04:13:03;16.92;;;9.38;;
52686;SDS011;38584;49.426;8.396;2023-08-21T04:15:29;17.70;;;9.40;;
52686;SDS011;38584;49.426;8.396;2023-08-21T04:17:54;18.50;;;10.13;;
52686;SDS011;38584;49.426;8.396;2023-08-21T04:20:19;19.33;;;10.50;;
52686;SDS011;38584;49.426;8.396;2023-08-21T04:22:46;20.38;;;10.15;;
52686;SDS011;38584;49.426;8.396;2023-08-21T04:25:11;25.83;;;10.33;;
52686;SDS011;38584;49.426;8.396;2023-08-21T04:27:42;18.02;;;9.65;;
52686;SDS011;38584;49.426;8.396;2023-08-21T04:30:11;18.15;;;10.10;;
52686;SDS011;38584;49.426;8.396;2023-08-21T04:32:36;16.05;;;10.43;;
52686;SDS011;38584;49.426;8.396;2023-08-21T04:35:05;17.40;;;10.37;;
52686;SDS011;38584;49.426;8.396;2023-08-21T04:37:43;25.08;;;10.82;;
52686;SDS011;38584;49.426;8.396;2023-08-21T04:40:09;21.95;;;10.27;;
52686;SDS011;38584;49.426;8.396;2023-08-21T04:42:34;23.17;;;10.20;;
52686;SDS011;38584;49.426;8.396;2023-08-21T04:45:00;19.17;;;10.68;;
52686;SDS011;38584;49.426;8.396;2023-08-21T04:47:36;19.95;;;10.63;;
52686;SDS011;38584;49.426;8.396;2023-08-21T04:52:26;17.40;;;10.48;;
52686;SDS011;38584;49.426;8.396;2023-08-21T04:54:51;24.08;;;10.50;;
52686;SDS011;38584;49.426;8.396;2023-08-21T04:57:17;21.55;;;11.70;;
52686;SDS011;38584;49.426;8.396;2023-08-21T04:59:42;20.42;;;10.65;;
52686;SDS011;38584;49.426;8.396;2023-08-21T05:02:08;21.27;;;11.40;;
52686;SDS011;38584;49.426;8.396;2023-08-21T05:04:33;22.83;;;10.80;;
52686;SDS011;38584;49.426;8.396;2023-08-21T05:06:59;19.02;;;9.98;;
52686;SDS011;38584;49.426;8.396;2023-08-21T05:09:27;25.30;;;11.20;;
52686;SDS011;38584;49.426;8.396;2023-08-21T05:11:55;27.30;;;11.13;;
52686;SDS011;38584;49.426;8.396;2023-08-21T05:14:20;17.35;;;10.43;;
52686;SDS011;38584;49.426;8.396;2023-08-21T05:16:49;22.30;;;10.70;;
52686;SDS011;38584;49.426;8.396;2023-08-21T05:19:14;19.58;;;10.68;;
52686;SDS011;38584;49.426;8.396;2023-08-21T05:21:40;19.00;;;10.47;;
52686;SDS011;38584;49.426;8.396;2023-08-21T05:24:05;19.77;;;10.80;;
52686;SDS011;38584;49.426;8.396;2023-08-21T05:26:30;20.77;;;11.33;;
52686;SDS011;38584;49.426;8.396;2023-08-21T05:28:56;23.35;;;11.25;;
52686;SDS011;38584;49.426;8.396;2023-08-21T05:31:21;18.00;;;11.10;;
52686;SDS011;38584;49.426;8.396;2023-08-21T05:33:46;21.83;;;11.00;;
52686;SDS011;38584;49.426;8.396;2023-08-21T05:36:11;34.03;;;12.57;;
52686;SDS011;38584;49.426;8.396;2023-08-21T05:38:40;30.85;;;12.63;;
52686;SDS011;38584;49.426;8.396;2023-08-21T05:41:05;26.55;;;11.38;;
52686;SDS011;38584;49.426;8.396;2023-08-21T05:43:33;23.27;;;10.63;;
52686;SDS011;38584;49.426;8.396;2023-08-21T05:45:59;16.88;;;10.35;;
52686;SDS011;38584;49.426;8.396;2023-08-21T05:48:24;19.47;;;11.33;;
52686;SDS011;38584;49.426;8.396;2023-08-21T05:50:52;24.15;;;11.52;;
52686;SDS011;38584;49.426;8.396;2023-08-21T05:53:17;25.30;;;11.35;;
52686;SDS011;38584;49.426;8.396;2023-08-21T05:55:43;25.10;;;11.97;;
52686;SDS011;38584;49.426;8.396;2023-08-21T05:58:08;20.70;;;10.50;;
52686;SDS011;38584;49.426;8.396;2023-08-21T06:00:33;19.87;;;10.80;;
52686;SDS011;38584;49.426;8.396;2023-08-21T06:02:59;19.85;;;10.85;;
52686;SDS011;38584;49.426;8.396;2023-08-21T06:05:24;20.60;;;11.67;;
52686;SDS011;38584;49.426;8.396;2023-08-21T06:07:55;28.02;;;11.20;;
52686;SDS011;38584;49.426;8.396;2023-08-21T06:10:21;21.17;;;10.98;;
52686;SDS011;38584;49.426;8.396;2023-08-21T06:12:46;19.50;;;11.33;;
52686;SDS011;38584;49.426;8.396;2023-08-21T06:15:13;21.20;;;11.50;;
52686;SDS011;38584;49.426;8.396;2023-08-21T06:17:38;18.83;;;11.40;;
52686;SDS011;38584;49.426;8.396;2023-08-21T06:20:06;18.95;;;11.45;;
52686;SDS011;38584;49.426;8.396;2023-08-21T06:22:33;18.88;;;11.20;;
52686;SDS011;38584;49.426;8.396;2023-08-21T06:24:58;20.80;;;10.70;;
52686;SDS011;38584;49.426;8.396;2023-08-21T06:27:26;19.87;;;11.47;;
52686;SDS011;38584;49.426;8.396;2023-08-21T06:29:52;23.00;;;11.57;;
52686;SDS011;38584;49.426;8.396;2023-08-21T06:32:17;20.42;;;11.02;;
52686;SDS011;38584;49.426;8.396;2023-08-21T06:34:42;26.83;;;11.07;;
52686;SDS011;38584;49.426;8.396;2023-08-21T06:37:07;21.87;;;11.23;;
52686;SDS011;38584;49.426;8.396;2023-08-21T06:39:33;20.30;;;10.90;;
52686;SDS011;38584;49.426;8.396;2023-08-21T06:42:01;23.50;;;11.52;;
52686;SDS011;38584;49.426;8.396;2023-08-21T06:44:27;17.48;;;10.85;;
52686;SDS011;38584;49.426;8.396;2023-08-21T06:46:55;17.90;;;11.13;;
52686;SDS011;38584;49.426;8.396;2023-08-21T06:49:20;22.75;;;11.13;;
52686;SDS011;38584;49.426;8.396;2023-08-21T06:51:52;18.90;;;11.33;;
52686;SDS011;38584;49.426;8.396;2023-08-21T06:54:17;22.02;;;11.25;;
52686;SDS011;38584;49.426;8.396;2023-08-21T06:56:45;18.98;;;10.43;;
52686;SDS011;38584;49.426;8.396;2023-08-21T06:59:11;19.15;;;11.85;;
52686;SDS011;38584;49.426;8.396;2023-08-21T07:01:36;20.87;;;12.37;;
52686;SDS011;38584;49.426;8.396;2023-08-21T07:04:04;24.90;;;12.60;;
52686;SDS011;38584;49.426;8.396;2023-08-21T07:06:29;23.67;;;12.00;;
52686;SDS011;38584;49.426;8.396;2023-08-21T07:09:01;23.65;;;12.35;;
52686;SDS011;38584;49.426;8.396;2023-08-21T07:11:26;21.10;;;10.18;;
52686;SDS011;38584;49.426;8.396;2023-08-21T07:13:52;21.65;;;10.73;;
52686;SDS011;38584;49.426;8.396;2023-08-21T07:16:17;18.60;;;9.93;;
52686;SDS011;38584;49.426;8.396;2023-08-21T07:18:42;21.00;;;12.33;;
52686;SDS011;38584;49.426;8.396;2023-08-21T07:21:07;19.70;;;11.07;;
52686;SDS011;38584;49.426;8.396;2023-08-21T07:23:32;20.37;;;11.40;;
52686;SDS011;38584;49.426;8.396;2023-08-21T07:26:01;17.08;;;10.77;;
52686;SDS011;38584;49.426;8.396;2023-08-21T07:28:28;20.92;;;11.20;;
52686;SDS011;38584;49.426;8.396;2023-08-21T07:30:54;17.90;;;10.50;;
52686;SDS011;38584;49.426;8.396;2023-08-21T07:33:19;21.08;;;12.20;;
52686;SDS011;38584;49.426;8.396;2023-08-21T07:35:44;22.67;;;11.48;;
52686;SDS011;38584;49.426;8.396;2023-08-21T07:38:09;21.90;;;11.50;;
52686;SDS011;38584;49.426;8.396;2023-08-21T07:40:35;19.17;;;10.77;;
52686;SDS011;38584;49.426;8.396;2023-08-21T07:43:00;18.93;;;11.43;;
52686;SDS011;38584;49.426;8.396;2023-08-21T07:45:25;18.77;;;11.10;;
52686;SDS011;38584;49.426;8.396;2023-08-21T07:47:50;23.27;;;11.17;;
52686;SDS011;38584;49.426;8.396;2023-08-21T07:50:15;18.07;;;10.70;;
52686;SDS011;38584;49.426;8.396;2023-08-21T07:52:41;19.88;;;10.55;;
52686;SDS011;38584;49.426;8.396;2023-08-21T07:55:07;21.67;;;12.15;;
52686;SDS011;38584;49.426;8.396;2023-08-21T07:57:32;19.38;;;11.23;;
52686;SDS011;38584;49.426;8.396;2023-08-21T07:59:57;20.00;;;10.93;;
52686;SDS011;38584;49.426;8.396;2023-08-21T08:02:23;25.37;;;11.80;;
52686;SDS011;38584;49.426;8.396;2023-08-21T08:04:48;19.55;;;11.15;;
52686;SDS011;38584;49.426;8.396;2023-08-21T08:07:13;19.43;;;11.70;;
52686;SDS011;38584;49.426;8.396;2023-08-21T08:09:39;17.90;;;11.23;;
52686;SDS011;38584;49.426;8.396;2023-08-21T08:12:04;22.77;;;11.37;;
52686;SDS011;38584;49.426;8.396;2023-08-21T08:14:29;21.10;;;10.68;;
52686;SDS011;38584;49.426;8.396;2023-08-21T08:16:55;19.73;;;11.67;;
52686;SDS011;38584;49.426;8.396;2023-08-21T08:19:20;20.97;;;10.93;;
52686;SDS011;38584;49.426;8.396;2023-08-21T08:21:45;25.85;;;11.45;;
52686;SDS011;38584;49.426;8.396;2023-08-21T08:24:13;24.60;;;11.80;;
52686;SDS011;38584;49.426;8.396;2023-08-21T08:26:38;20.58;;;11.75;;
52686;SDS011;38584;49.426;8.396;2023-08-21T08:29:04;19.80;;;11.50;;
52686;SDS011;38584;49.426;8.396;2023-08-21T08:31:30;21.02;;;12.27;;
52686;SDS011;38584;49.426;8.396;2023-08-21T08:33:55;18.20;;;12.15;;
52686;SDS011;38584;49.426;8.396;2023-08-21T08:36:20;22.70;;;11.10;;
52686;SDS011;38584;49.426;8.396;2023-08-21T08:38:51;17.60;;;11.00;;
52686;SDS011;38584;49.426;8.396;2023-08-21T08:41:33;21.52;;;10.75;;
52686;SDS011;38584;49.426;8.396;2023-08-21T08:43:58;23.55;;;10.30;;
52686;SDS011;38584;49.426;8.396;2023-08-21T08:46:24;24.02;;;9.80;;
52686;SDS011;38584;49.426;8.396;2023-08-21T08:48:50;22.73;;;9.95;;
52686;SDS011;38584;49.426;8.396;2023-08-21T08:51:15;19.30;;;10.30;;
52686;SDS011;38584;49.426;8.396;2023-08-21T08:53:41;20.92;;;9.88;;
52686;SDS011;38584;49.426;8.396;2023-08-21T08:56:07;20.45;;;10.30;;
52686;SDS011;38584;49.426;8.396;2023-08-21T08:58:33;15.52;;;7.75;;
52686;SDS011;38584;49.426;8.396;2023-08-21T09:00:59;17.50;;;8.50;;
52686;SDS011;38584;49.426;8.396;2023-08-21T09:03:28;17.60;;;8.40;;
52686;SDS011;38584;49.426;8.396;2023-08-21T09:05:53;16.25;;;8.00;;
52686;SDS011;38584;49.426;8.396;2023-08-21T09:08:18;20.45;;;8.55;;
52686;SDS011;38584;49.426;8.396;2023-08-21T09:10:44;21.25;;;8.38;;
52686;SDS011;38584;49.426;8.396;2023-08-21T09:13:14;24.67;;;8.75;;
52686;SDS011;38584;49.426;8.396;2023-08-21T09:15:40;15.57;;;8.25;;
52686;SDS011;38584;49.426;8.396;2023-08-21T09:18:11;15.85;;;8.18;;
52686;SDS011;38584;49.426;8.396;2023-08-21T09:20:36;16.63;;;8.82;;
52686;SDS011;38584;49.426;8.396;2023-08-21T09:23:01;17.43;;;8.47;;
52686;SDS011;38584;49.426;8.396;2023-08-21T09:25:35;19.88;;;8.50;;
52686;SDS011;38584;49.426;8.396;2023-08-21T09:28:03;15.93;;;8.52;;
52686;SDS011;38584;49.426;8.396;2023-08-21T09:30:45;18.48;;;8.90;;
52686;SDS011;38584;49.426;8.396;2023-08-21T09:33:11;20.25;;;7.97;;
52686;SDS011;38584;49.426;8.396;2023-08-21T09:35:43;14.97;;;6.57;;
52686;SDS011;38584;49.426;8.396;2023-08-21T09:38:08;16.10;;;7.07;;
52686;SDS011;38584;49.426;8.396;2023-08-21T09:40:36;13.80;;;7.55;;
52686;SDS011;38584;49.426;8.396;2023-08-21T09:43:03;22.23;;;7.60;;
52686;SDS011;38584;49.426;8.396;2023-08-21T09:45:28;22.03;;;7.40;;
52686;SDS011;38584;49.426;8.396;2023-08-21T09:47:54;13.73;;;7.43;;
52686;SDS011;38584;49.426;8.396;2023-08-21T09:50:19;17.63;;;6.67;;
52686;SDS011;38584;49.426;8.396;2023-08-21T09:52:45;16.90;;;6.38;;
52686;SDS011;38584;49.426;8.396;2023-08-21T09:55:10;14.18;;;6.60;;
52686;SDS011;38584;49.426;8.396;2023-08-21T09:57:36;18.95;;;7.13;;
52686;SDS011;38584;49.426;8.396;2023-08-21T10:00:02;14.50;;;6.28;;
52686;SDS011;38584;49.426;8.396;2023-08-21T10:02:40;13.48;;;6.22;;
52686;SDS011;38584;49.426;8.396;2023-08-21T10:05:06;15.32;;;5.82;;
52686;SDS011;38584;49.426;8.396;2023-08-21T10:07:31;23.48;;;5.95;;
52686;SDS011;38584;49.426;8.396;2023-08-21T10:09:57;12.60;;;6.45;;
52686;SDS011;38584;49.426;8.396;2023-08-21T10:12:22;12.45;;;5.97;;
52686;SDS011;38584;49.426;8.396;2023-08-21T10:14:50;18.17;;;6.32;;
52686;SDS011;38584;49.426;8.396;2023-08-21T10:17:15;14.55;;;5.95;;
52686;SDS011;38584;49.426;8.396;2023-08-21T10:19:41;16.23;;;6.27;;
52686;SDS011;38584;49.426;8.396;2023-08-21T10:22:06;16.23;;;6.00;;
52686;SDS011;38584;49.426;8.396;2023-08-21T10:24:35;14.07;;;5.87;;
52686;SDS011;38584;49.426;8.396;2023-08-21T10:27:01;15.38;;;5.57;;
52686;SDS011;38584;49.426;8.396;2023-08-21T10:29:30;12.68;;;4.90;;
52686;SDS011;38584;49.426;8.396;2023-08-21T10:31:59;13.63;;;5.35;;
52686;SDS011;38584;49.426;8.396;2023-08-21T10:34:30;13.20;;;4.88;;
52686;SDS011;38584;49.426;8.396;2023-08-21T10:39:35;13.60;;;4.40;;
52686;SDS011;38584;49.426;8.396;2023-08-21T10:47:32;11.90;;;5.25;;
52686;SDS011;38584;49.426;8.396;2023-08-21T10:49:51;12.45;;;4.80;;
52686;SDS011;38584;49.426;8.396;2023-08-21T10:52:20;14.50;;;4.28;;
52686;SDS011;38584;49.426;8.396;2023-08-21T10:54:50;12.38;;;4.72;;
52686;SDS011;38584;49.426;8.396;2023-08-21T10:57:15;9.20;;;4.28;;
52686;SDS011;38584;49.426;8.396;2023-08-21T10:59:54;13.27;;;4.63;;
52686;SDS011;38584;49.426;8.396;2023-08-21T11:02:19;10.80;;;4.65;;
52686;SDS011;38584;49.426;8.396;2023-08-21T11:04:45;12.27;;;5.18;;
52686;SDS011;38584;49.426;8.396;2023-08-21T11:07:10;14.43;;;4.97;;
52686;SDS011;38584;49.426;8.396;2023-08-21T11:09:36;11.65;;;4.60;;
52686;SDS011;38584;49.426;8.396;2023-08-21T11:12:34;10.23;;;4.35;;
52686;SDS011;38584;49.426;8.396;2023-08-21T11:14:53;10.55;;;4.45;;
52686;SDS011;38584;49.426;8.396;2023-08-21T11:17:18;12.15;;;4.45;;
52686;SDS011;38584;49.426;8.396;2023-08-21T11:19:43;11.52;;;4.55;;
52686;SDS011;38584;49.426;8.396;2023-08-21T11:22:12;11.90;;;4.80;;
52686;SDS011;38584;49.426;8.396;2023-08-21T11:27:02;14.07;;;4.87;;
52686;SDS011;38584;49.426;8.396;2023-08-21T11:29:29;16.45;;;4.68;;
52686;SDS011;38584;49.426;8.396;2023-08-21T11:31:57;22.17;;;11.87;;
52686;SDS011;38584;49.426;8.396;2023-08-21T11:34:23;18.70;;;9.85;;
52686;SDS011;38584;49.426;8.396;2023-08-21T11:36:48;21.07;;;11.40;;
52686;SDS011;38584;49.426;8.396;2023-08-21T11:39:13;15.23;;;5.57;;
52686;SDS011;38584;49.426;8.396;2023-08-21T11:41:56;12.73;;;4.87;;
52686;SDS011;38584;49.426;8.396;2023-08-21T11:44:22;15.10;;;5.05;;
52686;SDS011;38584;49.426;8.396;2023-08-21T11:46:47;11.23;;;4.77;;
52686;SDS011;38584;49.426;8.396;2023-08-21T11:49:12;13.23;;;5.03;;
52686;SDS011;38584;49.426;8.396;2023-08-21T11:51:38;18.53;;;5.50;;
52686;SDS011;38584;49.426;8.396;2023-08-21T11:54:03;11.57;;;4.95;;
52686;SDS011;38584;49.426;8.396;2023-08-21T11:56:29;14.38;;;5.05;;
52686;SDS011;38584;49.426;8.396;2023-08-21T11:58:54;12.10;;;4.37;;
52686;SDS011;38584;49.426;8.396;2023-08-21T12:01:19;14.37;;;4.53;;
52686;SDS011;38584;49.426;8.396;2023-08-21T12:03:45;9.25;;;4.35;;
52686;SDS011;38584;49.426;8.396;2023-08-21T12:06:10;12.67;;;4.50;;
52686;SDS011;38584;49.426;8.396;2023-08-21T12:08:36;12.98;;;4.45;;
52686;SDS011;38584;49.426;8.396;2023-08-21T12:11:01;11.80;;;4.57;;
52686;SDS011;38584;49.426;8.396;2023-08-21T12:13:26;11.07;;;4.30;;
52686;SDS011;38584;49.426;8.396;2023-08-21T12:15:52;12.73;;;4.63;;
52686;SDS011;38584;49.426;8.396;2023-08-21T12:18:17;14.43;;;4.70;;
52686;SDS011;38584;49.426;8.396;2023-08-21T12:20:42;12.10;;;3.90;;
52686;SDS011;38584;49.426;8.396;2023-08-21T12:23:07;12.60;;;4.83;;
52686;SDS011;38584;49.426;8.396;2023-08-21T12:25:32;15.17;;;4.27;;
52686;SDS011;38584;49.426;8.396;2023-08-21T12:27:58;14.40;;;4.60;;
52686;SDS011;38584;49.426;8.396;2023-08-21T12:30:29;12.55;;;4.50;;
52686;SDS011;38584;49.426;8.396;2023-08-21T12:32:57;14.30;;;4.28;;
52686;SDS011;38584;49.426;8.396;2023-08-21T12:35:22;13.93;;;4.00;;
52686;SDS011;38584;49.426;8.396;2023-08-21T12:37:47;11.88;;;3.85;;
52686;SDS011;38584;49.426;8.396;2023-08-21T12:40:13;9.68;;;3.65;;
52686;SDS011;38584;49.426;8.396;2023-08-21T12:42:41;16.20;;;4.27;;
52686;SDS011;38584;49.426;8.396;2023-08-21T12:45:07;9.18;;;4.05;;
52686;SDS011;38584;49.426;8.396;2023-08-21T12:47:32;9.18;;;3.17;;
52686;SDS011;38584;49.426;8.396;2023-08-21T12:49:58;9.45;;;3.47;;
52686;SDS011;38584;49.426;8.396;2023-08-21T12:52:23;8.27;;;3.10;;
52686;SDS011;38584;49.426;8.396;2023-08-21T12:54:54;13.13;;;3.70;;
52686;SDS011;38584;49.426;8.396;2023-08-21T12:57:19;13.50;;;3.70;;
52686;SDS011;38584;49.426;8.396;2023-08-21T12:59:48;9.90;;;3.50;;
52686;SDS011;38584;49.426;8.396;2023-08-21T13:02:13;10.80;;;3.60;;
52686;SDS011;38584;49.426;8.396;2023-08-21T13:04:38;10.75;;;3.90;;
52686;SDS011;38584;49.426;8.396;2023-08-21T13:07:04;10.30;;;3.83;;
52686;SDS011;38584;49.426;8.396;2023-08-21T13:09:29;8.40;;;3.13;;
52686;SDS011;38584;49.426;8.396;2023-08-21T13:11:54;9.67;;;3.70;;
52686;SDS011;38584;49.426;8.396;2023-08-21T13:14:20;10.23;;;3.50;;
52686;SDS011;38584;49.426;8.396;2023-08-21T13:16:45;12.80;;;3.87;;
52686;SDS011;38584;49.426;8.396;2023-08-21T13:19:10;11.80;;;6.37;;
52686;SDS011;38584;49.426;8.396;2023-08-21T13:21:35;12.52;;;3.67;;
52686;SDS011;38584;49.426;8.396;2023-08-21T13:24:00;8.90;;;3.40;;
52686;SDS011;38584;49.426;8.396;2023-08-21T13:26:26;11.55;;;3.70;;
52686;SDS011;38584;49.426;8.396;2023-08-21T13:28:54;12.07;;;4.07;;
52686;SDS011;38584;49.426;8.396;2023-08-21T13:31:19;10.87;;;3.57;;
52686;SDS011;38584;49.426;8.396;2023-08-21T13:33:47;10.60;;;3.63;;
52686;SDS011;38584;49.426;8.396;2023-08-21T13:36:13;11.32;;;3.70;;
52686;SDS011;38584;49.426;8.396;2023-08-21T13:38:39;11.93;;;4.00;;
52686;SDS011;38584;49.426;8.396;2023-08-21T13:41:07;11.02;;;3.90;;
52686;SDS011;38584;49.426;8.396;2023-08-21T13:43:33;7.65;;;3.47;;
52686;SDS011;38584;49.426;8.396;2023-08-21T13:45:59;8.10;;;3.50;;
52686;SDS011;38584;49.426;8.396;2023-08-21T13:48:26;11.98;;;3.85;;
52686;SDS011;38584;49.426;8.396;2023-08-21T13:50:57;10.47;;;3.57;;
52686;SDS011;38584;49.426;8.396;2023-08-21T13:53:22;12.68;;;4.10;;
52686;SDS011;38584;49.426;8.396;2023-08-21T13:55:49;12.35;;;3.67;;
52686;SDS011;38584;49.426;8.396;2023-08-21T13:58:14;9.68;;;3.72;;
52686;SDS011;38584;49.426;8.396;2023-08-21T14:00:43;13.68;;;5.75;;
52686;SDS011;38584;49.426;8.396;2023-08-21T14:03:09;12.43;;;3.50;;
52686;SDS011;38584;49.426;8.396;2023-08-21T14:05:37;9.43;;;3.60;;
52686;SDS011;38584;49.426;8.396;2023-08-21T14:08:03;9.40;;;3.30;;
52686;SDS011;38584;49.426;8.396;2023-08-21T14:10:28;10.30;;;3.35;;
52686;SDS011;38584;49.426;8.396;2023-08-21T14:12:55;10.75;;;3.20;;
52686;SDS011;38584;49.426;8.396;2023-08-21T14:15:21;7.95;;;3.00;;
52686;SDS011;38584;49.426;8.396;2023-08-21T14:17:47;9.55;;;3.42;;
52686;SDS011;38584;49.426;8.396;2023-08-21T14:20:20;11.00;;;3.38;;
52686;SDS011;38584;49.426;8.396;2023-08-21T14:22:45;12.30;;;3.63;;
52686;SDS011;38584;49.426;8.396;2023-08-21T14:25:10;9.23;;;3.20;;
52686;SDS011;38584;49.426;8.396;2023-08-21T14:27:36;9.73;;;3.13;;
52686;SDS011;38584;49.426;8.396;2023-08-21T14:30:01;8.90;;;3.53;;
52686;SDS011;38584;49.426;8.396;2023-08-21T14:32:26;10.77;;;3.30;;
52686;SDS011;38584;49.426;8.396;2023-08-21T14:34:51;8.00;;;3.17;;
52686;SDS011;38584;49.426;8.396;2023-08-21T14:37:18;11.90;;;3.75;;
52686;SDS011;38584;49.426;8.396;2023-08-21T14:39:43;16.23;;;3.90;;
52686;SDS011;38584;49.426;8.396;2023-08-21T14:42:09;8.82;;;3.50;;